Rocky Branch, Texas
Current Conditions -  °F | °C
As of 5:55 PM on Wednesday 22 Oct 2014 (Local Time) from KOSA Reporting Station
Clear Clear  
Wind Chill: 74°   Ceiling: Unl
Heat Index: 74°   Visibility: 5mi
Dew Point: 51°   Wind: 6mph
Humidity: 45%   Direction: 60°ENE
Pressure: 30.11"   Gusts: NA
Location:  33.2006°N, 94.6977°W
Report Text: KOSA 222255Z AUTO 06005KT 5SM CLR 23/11 A3011 RMK AO1 T02340107
Loading
Personal Weather Stations






























Interactive Weather Map New forecast layout! Learn more

10-Day Weather Forecast

Advertisements
Track Severe Weather on mobile